sensor_id;sensor_type;location;lat;lon;timestamp;temperature;humidity
75134;HTU21D;63706;44.708;37.780;2022-10-17T00:01:40;14.95;69.68
75134;HTU21D;63706;44.708;37.780;2022-10-17T00:04:05;14.96;69.66
75134;HTU21D;63706;44.708;37.780;2022-10-17T00:06:31;14.93;69.60
75134;HTU21D;63706;44.708;37.780;2022-10-17T00:08:57;14.94;69.54
75134;HTU21D;63706;44.708;37.780;2022-10-17T00:11:23;14.93;69.55
75134;HTU21D;63706;44.708;37.780;2022-10-17T00:13:49;14.93;69.68
75134;HTU21D;63706;44.708;37.780;2022-10-17T00:16:22;14.93;69.62
75134;HTU21D;63706;44.708;37.780;2022-10-17T00:18:48;14.92;69.61
75134;HTU21D;63706;44.708;37.780;2022-10-17T00:21:14;14.91;69.59
75134;HTU21D;63706;44.708;37.780;2022-10-17T00:23:40;14.91;69.58
75134;HTU21D;63706;44.708;37.780;2022-10-17T00:26:06;14.91;69.55
75134;HTU21D;63706;44.708;37.780;2022-10-17T00:28:32;14.88;69.55
75134;HTU21D;63706;44.708;37.780;2022-10-17T00:30:58;14.87;69.49
75134;HTU21D;63706;44.708;37.780;2022-10-17T00:33:25;14.86;69.49
75134;HTU21D;63706;44.708;37.780;2022-10-17T00:35:51;14.86;69.39
75134;HTU21D;63706;44.708;37.780;2022-10-17T00:38:26;14.85;69.50
75134;HTU21D;63706;44.708;37.780;2022-10-17T00:40:52;14.84;69.52
75134;HTU21D;63706;44.708;37.780;2022-10-17T00:43:17;14.83;69.48
75134;HTU21D;63706;44.708;37.780;2022-10-17T00:45:44;14.81;69.45
75134;HTU21D;63706;44.708;37.780;2022-10-17T00:48:11;14.79;69.43
75134;HTU21D;63706;44.708;37.780;2022-10-17T00:50:38;14.77;69.45
75134;HTU21D;63706;44.708;37.780;2022-10-17T00:53:07;14.73;69.47
75134;HTU21D;63706;44.708;37.780;2022-10-17T00:55:34;14.70;69.60
75134;HTU21D;63706;44.708;37.780;2022-10-17T00:58:02;14.70;69.58
75134;HTU21D;63706;44.708;37.780;2022-10-17T01:00:28;14.66;69.71
75134;HTU21D;63706;44.708;37.780;2022-10-17T01:02:54;14.64;69.71
75134;HTU21D;63706;44.708;37.780;2022-10-17T01:05:20;14.63;69.94
75134;HTU21D;63706;44.708;37.780;2022-10-17T01:07:46;14.63;70.04
75134;HTU21D;63706;44.708;37.780;2022-10-17T01:10:14;14.63;70.08
75134;HTU21D;63706;44.708;37.780;2022-10-17T01:13:01;14.59;70.05
75134;HTU21D;63706;44.708;37.780;2022-10-17T01:15:32;14.59;70.34
75134;HTU21D;63706;44.708;37.780;2022-10-17T01:18:10;14.60;70.45
75134;HTU21D;63706;44.708;37.780;2022-10-17T01:20:44;14.60;70.42
75134;HTU21D;63706;44.708;37.780;2022-10-17T01:23:47;14.62;70.39
75134;HTU21D;63706;44.708;37.780;2022-10-17T01:26:22;14.63;70.39
75134;HTU21D;63706;44.708;37.780;2022-10-17T01:31:24;14.65;70.33
75134;HTU21D;63706;44.708;37.780;2022-10-17T01:36:27;14.67;70.54
75134;HTU21D;63706;44.708;37.780;2022-10-17T01:39:13;14.70;70.39
75134;HTU21D;63706;44.708;37.780;2022-10-17T01:41:52;14.73;70.58
75134;HTU21D;63706;44.708;37.780;2022-10-17T01:44:22;14.75;70.42
75134;HTU21D;63706;44.708;37.780;2022-10-17T01:47:03;14.78;70.25
75134;HTU21D;63706;44.708;37.780;2022-10-17T01:49:31;14.80;70.48
75134;HTU21D;63706;44.708;37.780;2022-10-17T01:51:59;14.82;70.63
75134;HTU21D;63706;44.708;37.780;2022-10-17T01:54:31;14.84;70.51
75134;HTU21D;63706;44.708;37.780;2022-10-17T01:57:02;14.86;70.19
75134;HTU21D;63706;44.708;37.780;2022-10-17T01:59:30;14.86;70.39
75134;HTU21D;63706;44.708;37.780;2022-10-17T02:01:58;14.87;70.25
75134;HTU21D;63706;44.708;37.780;2022-10-17T02:04:25;14.85;70.20
75134;HTU21D;63706;44.708;37.780;2022-10-17T02:06:51;14.84;70.10
75134;HTU21D;63706;44.708;37.780;2022-10-17T02:09:21;14.81;70.05
75134;HTU21D;63706;44.708;37.780;2022-10-17T02:11:54;14.79;70.13
75134;HTU21D;63706;44.708;37.780;2022-10-17T02:14:31;14.79;70.10
75134;HTU21D;63706;44.708;37.780;2022-10-17T02:19:33;14.71;70.02
75134;HTU21D;63706;44.708;37.780;2022-10-17T02:27:43;14.67;70.32
75134;HTU21D;63706;44.708;37.780;2022-10-17T02:30:22;14.64;70.37
75134;HTU21D;63706;44.708;37.780;2022-10-17T02:35:19;14.64;70.57
75134;HTU21D;63706;44.708;37.780;2022-10-17T02:37:46;14.65;70.62
75134;HTU21D;63706;44.708;37.780;2022-10-17T02:40:12;14.66;70.49
75134;HTU21D;63706;44.708;37.780;2022-10-17T02:42:40;14.65;70.35
75134;HTU21D;63706;44.708;37.780;2022-10-17T02:45:07;14.62;70.40
75134;HTU21D;63706;44.708;37.780;2022-10-17T02:47:36;14.59;70.39
75134;HTU21D;63706;44.708;37.780;2022-10-17T02:50:04;14.57;70.39
75134;HTU21D;63706;44.708;37.780;2022-10-17T02:52:38;14.55;70.49
75134;HTU21D;63706;44.708;37.780;2022-10-17T02:57:43;14.53;70.43
75134;HTU21D;63706;44.708;37.780;2022-10-17T03:00:12;14.50;70.35
75134;HTU21D;63706;44.708;37.780;2022-10-17T03:02:46;14.49;70.36
75134;HTU21D;63706;44.708;37.780;2022-10-17T03:05:14;14.47;70.58
75134;HTU21D;63706;44.708;37.780;2022-10-17T03:07:40;14.43;70.48
75134;HTU21D;63706;44.708;37.780;2022-10-17T03:10:06;14.39;70.37
75134;HTU21D;63706;44.708;37.780;2022-10-17T03:12:32;14.37;70.43
75134;HTU21D;63706;44.708;37.780;2022-10-17T03:14:58;14.36;70.39
75134;HTU21D;63706;44.708;37.780;2022-10-17T03:17:23;14.30;70.24
75134;HTU21D;63706;44.708;37.780;2022-10-17T03:19:49;14.27;70.31
75134;HTU21D;63706;44.708;37.780;2022-10-17T03:22:15;14.25;70.42
75134;HTU21D;63706;44.708;37.780;2022-10-17T03:24:44;14.23;70.32
75134;HTU21D;63706;44.708;37.780;2022-10-17T03:27:10;14.19;70.41
75134;HTU21D;63706;44.708;37.780;2022-10-17T03:29:36;14.14;70.34
75134;HTU21D;63706;44.708;37.780;2022-10-17T03:32:03;14.12;70.48
75134;HTU21D;63706;44.708;37.780;2022-10-17T03:34:29;14.08;70.41
75134;HTU21D;63706;44.708;37.780;2022-10-17T03:36:55;14.03;70.52
75134;HTU21D;63706;44.708;37.780;2022-10-17T03:39:22;13.98;70.58
75134;HTU21D;63706;44.708;37.780;2022-10-17T03:41:47;13.93;70.68
75134;HTU21D;63706;44.708;37.780;2022-10-17T03:44:13;13.89;70.94
75134;HTU21D;63706;44.708;37.780;2022-10-17T03:46:39;13.84;70.92
75134;HTU21D;63706;44.708;37.780;2022-10-17T03:49:05;13.81;70.93
75134;HTU21D;63706;44.708;37.780;2022-10-17T03:51:32;13.77;70.99
75134;HTU21D;63706;44.708;37.780;2022-10-17T03:54:03;13.75;71.18
75134;HTU21D;63706;44.708;37.780;2022-10-17T03:56:29;13.70;71.12
75134;HTU21D;63706;44.708;37.780;2022-10-17T03:59:00;13.66;71.14
75134;HTU21D;63706;44.708;37.780;2022-10-17T04:01:28;13.64;71.44
75134;HTU21D;63706;44.708;37.780;2022-10-17T04:03:55;13.60;71.45
75134;HTU21D;63706;44.708;37.780;2022-10-17T04:06:21;13.59;71.90
75134;HTU21D;63706;44.708;37.780;2022-10-17T04:08:48;13.54;71.79
75134;HTU21D;63706;44.708;37.780;2022-10-17T04:11:31;13.51;71.80
75134;HTU21D;63706;44.708;37.780;2022-10-17T04:14:01;13.48;71.76
75134;HTU21D;63706;44.708;37.780;2022-10-17T04:16:28;13.47;71.76
75134;HTU21D;63706;44.708;37.780;2022-10-17T04:19:09;13.45;71.93
75134;HTU21D;63706;44.708;37.780;2022-10-17T04:21:39;13.43;71.91
75134;HTU21D;63706;44.708;37.780;2022-10-17T04:24:07;13.43;71.96
75134;HTU21D;63706;44.708;37.780;2022-10-17T04:26:43;13.40;72.08
75134;HTU21D;63706;44.708;37.780;2022-10-17T04:29:09;13.38;72.00
75134;HTU21D;63706;44.708;37.780;2022-10-17T04:31:36;13.39;72.14
75134;HTU21D;63706;44.708;37.780;2022-10-17T04:34:10;13.38;72.17
75134;HTU21D;63706;44.708;37.780;2022-10-17T04:36:38;13.36;72.22
75134;HTU21D;63706;44.708;37.780;2022-10-17T04:39:04;13.36;72.32
75134;HTU21D;63706;44.708;37.780;2022-10-17T04:41:31;13.36;72.40
75134;HTU21D;63706;44.708;37.780;2022-10-17T04:43:56;13.34;72.42
75134;HTU21D;63706;44.708;37.780;2022-10-17T04:46:24;13.35;72.51
75134;HTU21D;63706;44.708;37.780;2022-10-17T04:48:50;13.35;72.52
75134;HTU21D;63706;44.708;37.780;2022-10-17T04:51:17;13.36;72.47
75134;HTU21D;63706;44.708;37.780;2022-10-17T04:54:03;13.38;72.59
75134;HTU21D;63706;44.708;37.780;2022-10-17T04:56:32;13.39;72.61
75134;HTU21D;63706;44.708;37.780;2022-10-17T04:58:58;13.41;72.70
75134;HTU21D;63706;44.708;37.780;2022-10-17T05:01:29;13.41;72.70
75134;HTU21D;63706;44.708;37.780;2022-10-17T05:03:56;13.45;72.83
75134;HTU21D;63706;44.708;37.780;2022-10-17T05:06:22;13.48;72.70
75134;HTU21D;63706;44.708;37.780;2022-10-17T05:09:09;13.51;72.80
75134;HTU21D;63706;44.708;37.780;2022-10-17T05:11:35;13.52;72.63
75134;HTU21D;63706;44.708;37.780;2022-10-17T05:14:01;13.54;73.06
75134;HTU21D;63706;44.708;37.780;2022-10-17T05:16:29;13.54;73.01
75134;HTU21D;63706;44.708;37.780;2022-10-17T05:18:56;13.55;72.91
75134;HTU21D;63706;44.708;37.780;2022-10-17T05:21:25;13.58;72.90
75134;HTU21D;63706;44.708;37.780;2022-10-17T05:23:52;13.60;72.77
75134;HTU21D;63706;44.708;37.780;2022-10-17T05:26:18;13.62;73.17
75134;HTU21D;63706;44.708;37.780;2022-10-17T05:28:44;13.64;72.96
75134;HTU21D;63706;44.708;37.780;2022-10-17T05:31:10;13.68;73.03
75134;HTU21D;63706;44.708;37.780;2022-10-17T05:33:37;13.73;73.08
75134;HTU21D;63706;44.708;37.780;2022-10-17T05:36:03;13.77;72.82
75134;HTU21D;63706;44.708;37.780;2022-10-17T05:38:29;13.85;72.73
75134;HTU21D;63706;44.708;37.780;2022-10-17T05:41:13;13.91;72.57
75134;HTU21D;63706;44.708;37.780;2022-10-17T05:43:39;13.95;72.49
75134;HTU21D;63706;44.708;37.780;2022-10-17T05:46:05;13.99;72.59
75134;HTU21D;63706;44.708;37.780;2022-10-17T05:48:32;14.00;72.56
75134;HTU21D;63706;44.708;37.780;2022-10-17T05:50:59;13.96;72.18
75134;HTU21D;63706;44.708;37.780;2022-10-17T05:53:25;13.93;72.25
75134;HTU21D;63706;44.708;37.780;2022-10-17T05:55:56;13.88;72.20
75134;HTU21D;63706;44.708;37.780;2022-10-17T05:58:23;13.84;72.25
75134;HTU21D;63706;44.708;37.780;2022-10-17T06:00:57;13.81;72.41
75134;HTU21D;63706;44.708;37.780;2022-10-17T06:03:23;13.79;72.48
75134;HTU21D;63706;44.708;37.780;2022-10-17T06:05:49;13.77;72.43
75134;HTU21D;63706;44.708;37.780;2022-10-17T06:08:16;13.76;72.39
75134;HTU21D;63706;44.708;37.780;2022-10-17T06:10:45;13.76;72.77
75134;HTU21D;63706;44.708;37.780;2022-10-17T06:13:12;13.76;72.97
75134;HTU21D;63706;44.708;37.780;2022-10-17T06:15:38;13.78;72.88
75134;HTU21D;63706;44.708;37.780;2022-10-17T06:18:06;13.82;72.83
75134;HTU21D;63706;44.708;37.780;2022-10-17T06:20:32;13.88;72.93
75134;HTU21D;63706;44.708;37.780;2022-10-17T06:23:23;13.93;72.88
75134;HTU21D;63706;44.708;37.780;2022-10-17T06:26:00;13.97;73.13
75134;HTU21D;63706;44.708;37.780;2022-10-17T06:28:28;14.01;72.90
75134;HTU21D;63706;44.708;37.780;2022-10-17T06:30:55;14.06;72.70
75134;HTU21D;63706;44.708;37.780;2022-10-17T06:33:21;14.09;72.45
75134;HTU21D;63706;44.708;37.780;2022-10-17T06:35:54;14.11;72.43
75134;HTU21D;63706;44.708;37.780;2022-10-17T06:38:23;14.15;72.53
75134;HTU21D;63706;44.708;37.780;2022-10-17T06:40:51;14.21;72.38
75134;HTU21D;63706;44.708;37.780;2022-10-17T06:43:19;14.25;72.48
75134;HTU21D;63706;44.708;37.780;2022-10-17T06:46:17;14.30;72.41
75134;HTU21D;63706;44.708;37.780;2022-10-17T06:48:54;14.30;72.32
75134;HTU21D;63706;44.708;37.780;2022-10-17T06:51:37;14.32;72.24
75134;HTU21D;63706;44.708;37.780;2022-10-17T06:54:06;14.35;71.98
75134;HTU21D;63706;44.708;37.780;2022-10-17T06:56:46;14.36;71.85
75134;HTU21D;63706;44.708;37.780;2022-10-17T06:59:30;14.35;71.68
75134;HTU21D;63706;44.708;37.780;2022-10-17T07:02:07;14.34;71.66
75134;HTU21D;63706;44.708;37.780;2022-10-17T07:04:35;14.36;71.45
75134;HTU21D;63706;44.708;37.780;2022-10-17T07:07:01;14.37;71.29
75134;HTU21D;63706;44.708;37.780;2022-10-17T07:09:29;14.43;71.24
75134;HTU21D;63706;44.708;37.780;2022-10-17T07:11:57;14.49;70.99
75134;HTU21D;63706;44.708;37.780;2022-10-17T07:14:23;14.55;70.87
75134;HTU21D;63706;44.708;37.780;2022-10-17T07:16:59;14.63;70.89
75134;HTU21D;63706;44.708;37.780;2022-10-17T07:19:27;14.66;70.63
75134;HTU21D;63706;44.708;37.780;2022-10-17T07:21:53;14.68;70.48
75134;HTU21D;63706;44.708;37.780;2022-10-17T07:24:19;14.69;70.23
75134;HTU21D;63706;44.708;37.780;2022-10-17T07:26:54;14.70;70.19
75134;HTU21D;63706;44.708;37.780;2022-10-17T07:29:20;14.70;70.31
75134;HTU21D;63706;44.708;37.780;2022-10-17T07:32:12;14.73;70.48
75134;HTU21D;63706;44.708;37.780;2022-10-17T07:34:39;14.82;70.45
75134;HTU21D;63706;44.708;37.780;2022-10-17T07:37:07;14.92;70.35
75134;HTU21D;63706;44.708;37.780;2022-10-17T07:39:35;15.01;70.27
75134;HTU21D;63706;44.708;37.780;2022-10-17T07:42:01;15.09;70.01
75134;HTU21D;63706;44.708;37.780;2022-10-17T07:44:28;15.14;69.78
75134;HTU21D;63706;44.708;37.780;2022-10-17T07:46:55;15.13;69.45
75134;HTU21D;63706;44.708;37.780;2022-10-17T07:49:22;15.06;69.75
75134;HTU21D;63706;44.708;37.780;2022-10-17T07:51:47;15.10;69.72
75134;HTU21D;63706;44.708;37.780;2022-10-17T07:54:14;15.09;69.80
75134;HTU21D;63706;44.708;37.780;2022-10-17T07:56:39;15.08;69.90
75134;HTU21D;63706;44.708;37.780;2022-10-17T07:59:05;15.12;69.90
75134;HTU21D;63706;44.708;37.780;2022-10-17T08:01:34;15.14;69.85
75134;HTU21D;63706;44.708;37.780;2022-10-17T08:03:59;15.10;69.90
75134;HTU21D;63706;44.708;37.780;2022-10-17T08:06:25;15.03;69.95
75134;HTU21D;63706;44.708;37.780;2022-10-17T08:08:51;15.00;70.13
75134;HTU21D;63706;44.708;37.780;2022-10-17T08:11:17;14.96;70.16
75134;HTU21D;63706;44.708;37.780;2022-10-17T08:13:43;14.94;70.32
75134;HTU21D;63706;44.708;37.780;2022-10-17T08:16:10;14.93;70.45
75134;HTU21D;63706;44.708;37.780;2022-10-17T08:18:37;14.93;70.62
75134;HTU21D;63706;44.708;37.780;2022-10-17T08:21:04;14.91;70.63
75134;HTU21D;63706;44.708;37.780;2022-10-17T08:23:34;14.89;70.74
75134;HTU21D;63706;44.708;37.780;2022-10-17T08:26:00;14.91;70.80
75134;HTU21D;63706;44.708;37.780;2022-10-17T08:28:27;14.88;70.84
75134;HTU21D;63706;44.708;37.780;2022-10-17T08:31:00;14.87;70.81
75134;HTU21D;63706;44.708;37.780;2022-10-17T08:33:27;14.88;71.29
75134;HTU21D;63706;44.708;37.780;2022-10-17T08:35:53;14.87;71.32
75134;HTU21D;63706;44.708;37.780;2022-10-17T08:38:19;14.87;71.48
75134;HTU21D;63706;44.708;37.780;2022-10-17T08:40:49;14.84;71.82
75134;HTU21D;63706;44.708;37.780;2022-10-17T08:46:03;14.80;72.04
75134;HTU21D;63706;44.708;37.780;2022-10-17T08:48:29;14.79;72.37
75134;HTU21D;63706;44.708;37.780;2022-10-17T08:55:48;14.79;72.78
75134;HTU21D;63706;44.708;37.780;2022-10-17T08:58:19;14.79;72.74
75134;HTU21D;63706;44.708;37.780;2022-10-17T09:00:48;14.84;72.86
75134;HTU21D;63706;44.708;37.780;2022-10-17T09:05:52;14.95;72.93
75134;HTU21D;63706;44.708;37.780;2022-10-17T09:08:25;15.02;72.88
75134;HTU21D;63706;44.708;37.780;2022-10-17T09:10:57;15.06;72.42
75134;HTU21D;63706;44.708;37.780;2022-10-17T09:18:44;14.99;72.51
75134;HTU21D;63706;44.708;37.780;2022-10-17T09:24:04;15.00;72.63
75134;HTU21D;63706;44.708;37.780;2022-10-17T09:26:31;15.02;72.77
75134;HTU21D;63706;44.708;37.780;2022-10-17T09:28:58;15.02;72.75
75134;HTU21D;63706;44.708;37.780;2022-10-17T09:31:25;15.04;72.77
75134;HTU21D;63706;44.708;37.780;2022-10-17T09:33:53;15.10;72.86
75134;HTU21D;63706;44.708;37.780;2022-10-17T09:36:28;15.12;72.90
75134;HTU21D;63706;44.708;37.780;2022-10-17T09:38:55;15.17;72.90
75134;HTU21D;63706;44.708;37.780;2022-10-17T09:41:26;15.23;72.85
75134;HTU21D;63706;44.708;37.780;2022-10-17T09:43:55;15.26;72.69
75134;HTU21D;63706;44.708;37.780;2022-10-17T09:46:25;15.29;72.61
75134;HTU21D;63706;44.708;37.780;2022-10-17T09:49:00;15.32;72.53
75134;HTU21D;63706;44.708;37.780;2022-10-17T09:51:28;15.38;72.58
75134;HTU21D;63706;44.708;37.780;2022-10-17T09:54:02;15.44;72.47
75134;HTU21D;63706;44.708;37.780;2022-10-17T09:56:28;15.47;72.16
75134;HTU21D;63706;44.708;37.780;2022-10-17T09:58:57;15.52;72.23
75134;HTU21D;63706;44.708;37.780;2022-10-17T10:01:27;15.55;72.14
75134;HTU21D;63706;44.708;37.780;2022-10-17T10:04:09;15.57;71.87
75134;HTU21D;63706;44.708;37.780;2022-10-17T10:06:36;15.59;71.63
75134;HTU21D;63706;44.708;37.780;2022-10-17T10:09:02;15.62;71.75
75134;HTU21D;63706;44.708;37.780;2022-10-17T10:14:12;15.63;71.42
75134;HTU21D;63706;44.708;37.780;2022-10-17T10:16:42;15.65;71.41
75134;HTU21D;63706;44.708;37.780;2022-10-17T10:19:48;15.61;71.31
75134;HTU21D;63706;44.708;37.780;2022-10-17T10:22:01;15.60;71.45
75134;HTU21D;63706;44.708;37.780;2022-10-17T10:24:27;15.60;71.60
75134;HTU21D;63706;44.708;37.780;2022-10-17T10:26:54;15.62;71.74
75134;HTU21D;63706;44.708;37.780;2022-10-17T10:29:31;15.62;71.91
75134;HTU21D;63706;44.708;37.780;2022-10-17T10:32:09;15.63;71.78
75134;HTU21D;63706;44.708;37.780;2022-10-17T10:34:35;15.66;71.94
75134;HTU21D;63706;44.708;37.780;2022-10-17T10:37:03;15.63;71.88
75134;HTU21D;63706;44.708;37.780;2022-10-17T10:41:56;15.63;71.74
75134;HTU21D;63706;44.708;37.780;2022-10-17T10:44:23;15.59;72.13
75134;HTU21D;63706;44.708;37.780;2022-10-17T10:47:07;15.55;72.13
75134;HTU21D;63706;44.708;37.780;2022-10-17T10:49:33;15.54;72.38
75134;HTU21D;63706;44.708;37.780;2022-10-17T10:51:59;15.52;72.58
75134;HTU21D;63706;44.708;37.780;2022-10-17T10:54:34;15.49;72.54
75134;HTU21D;63706;44.708;37.780;2022-10-17T10:57:03;15.49;72.67
75134;HTU21D;63706;44.708;37.780;2022-10-17T11:07:09;15.43;73.44
75134;HTU21D;63706;44.708;37.780;2022-10-17T11:09:45;15.44;73.41
75134;HTU21D;63706;44.708;37.780;2022-10-17T11:12:19;15.45;73.46
75134;HTU21D;63706;44.708;37.780;2022-10-17T11:20:09;15.41;73.85
75134;HTU21D;63706;44.708;37.780;2022-10-17T11:22:38;15.38;74.07
75134;HTU21D;63706;44.708;37.780;2022-10-17T11:27:50;15.32;74.37
75134;HTU21D;63706;44.708;37.780;2022-10-17T11:30:16;15.31;74.48
75134;HTU21D;63706;44.708;37.780;2022-10-17T11:35:29;15.27;74.90
75134;HTU21D;63706;44.708;37.780;2022-10-17T11:38:00;15.22;75.24
75134;HTU21D;63706;44.708;37.780;2022-10-17T11:40:32;15.21;75.63
75134;HTU21D;63706;44.708;37.780;2022-10-17T11:43:00;15.19;75.54
75134;HTU21D;63706;44.708;37.780;2022-10-17T11:45:29;15.17;75.57
75134;HTU21D;63706;44.708;37.780;2022-10-17T11:48:06;15.18;75.62
75134;HTU21D;63706;44.708;37.780;2022-10-17T11:50:42;15.19;75.83
75134;HTU21D;63706;44.708;37.780;2022-10-17T11:53:11;15.18;75.86
75134;HTU21D;63706;44.708;37.780;2022-10-17T11:55:38;15.15;75.94
75134;HTU21D;63706;44.708;37.780;2022-10-17T11:58:26;15.18;76.02
75134;HTU21D;63706;44.708;37.780;2022-10-17T12:08:52;15.17;75.95
75134;HTU21D;63706;44.708;37.780;2022-10-17T12:11:29;15.15;76.08
75134;HTU21D;63706;44.708;37.780;2022-10-17T12:13:59;15.12;76.17
75134;HTU21D;63706;44.708;37.780;2022-10-17T12:21:26;15.16;76.11
75134;HTU21D;63706;44.708;37.780;2022-10-17T12:23:53;15.18;75.95
75134;HTU21D;63706;44.708;37.780;2022-10-17T12:26:25;15.18;75.99
75134;HTU21D;63706;44.708;37.780;2022-10-17T12:28:52;15.18;76.06
75134;HTU21D;63706;44.708;37.780;2022-10-17T12:33:57;15.16;76.06
75134;HTU21D;63706;44.708;37.780;2022-10-17T12:46:45;15.16;75.92
75134;HTU21D;63706;44.708;37.780;2022-10-17T12:54:37;15.14;76.15
75134;HTU21D;63706;44.708;37.780;2022-10-17T12:57:06;15.13;76.13
75134;HTU21D;63706;44.708;37.780;2022-10-17T12:59:41;15.13;76.14
75134;HTU21D;63706;44.708;37.780;2022-10-17T13:02:07;15.14;76.05
75134;HTU21D;63706;44.708;37.780;2022-10-17T13:04:39;15.13;76.27
75134;HTU21D;63706;44.708;37.780;2022-10-17T13:07:10;15.12;76.56
75134;HTU21D;63706;44.708;37.780;2022-10-17T13:09:41;15.10;76.28
75134;HTU21D;63706;44.708;37.780;2022-10-17T13:12:11;15.07;76.38
75134;HTU21D;63706;44.708;37.780;2022-10-17T13:14:41;15.06;76.63
75134;HTU21D;63706;44.708;37.780;2022-10-17T13:17:26;15.04;76.73
75134;HTU21D;63706;44.708;37.780;2022-10-17T13:19:55;15.04;76.72
75134;HTU21D;63706;44.708;37.780;2022-10-17T13:22:24;15.04;76.85
75134;HTU21D;63706;44.708;37.780;2022-10-17T13:25:03;15.01;76.86
75134;HTU21D;63706;44.708;37.780;2022-10-17T13:27:32;14.99;77.15
75134;HTU21D;63706;44.708;37.780;2022-10-17T13:30:15;14.97;77.12
75134;HTU21D;63706;44.708;37.780;2022-10-17T13:32:45;14.93;77.24
75134;HTU21D;63706;44.708;37.780;2022-10-17T13:35:12;14.89;77.25
75134;HTU21D;63706;44.708;37.780;2022-10-17T13:37:39;14.88;77.08
75134;HTU21D;63706;44.708;37.780;2022-10-17T13:40:06;14.88;77.18
75134;HTU21D;63706;44.708;37.780;2022-10-17T13:42:39;14.88;77.08
75134;HTU21D;63706;44.708;37.780;2022-10-17T13:47:40;14.82;77.08
75134;HTU21D;63706;44.708;37.780;2022-10-17T13:50:06;14.81;77.10
75134;HTU21D;63706;44.708;37.780;2022-10-17T13:52:32;14.79;77.07
75134;HTU21D;63706;44.708;37.780;2022-10-17T13:55:08;14.78;77.24
75134;HTU21D;63706;44.708;37.780;2022-10-17T13:57:35;14.73;77.15
75134;HTU21D;63706;44.708;37.780;2022-10-17T14:00:15;14.74;77.34
75134;HTU21D;63706;44.708;37.780;2022-10-17T14:02:42;14.71;77.42
75134;HTU21D;63706;44.708;37.780;2022-10-17T14:05:13;14.69;77.50
75134;HTU21D;63706;44.708;37.780;2022-10-17T14:07:52;14.67;77.47
75134;HTU21D;63706;44.708;37.780;2022-10-17T14:10:20;14.65;77.53
75134;HTU21D;63706;44.708;37.780;2022-10-17T14:12:46;14.62;77.68
75134;HTU21D;63706;44.708;37.780;2022-10-17T14:15:13;14.60;77.51
75134;HTU21D;63706;44.708;37.780;2022-10-17T14:17:42;14.58;77.60
75134;HTU21D;63706;44.708;37.780;2022-10-17T14:20:16;14.56;77.57
75134;HTU21D;63706;44.708;37.780;2022-10-17T14:22:42;14.54;77.72
75134;HTU21D;63706;44.708;37.780;2022-10-17T14:27:54;14.45;77.79
75134;HTU21D;63706;44.708;37.780;2022-10-17T14:32:52;14.41;78.22
75134;HTU21D;63706;44.708;37.780;2022-10-17T14:35:19;14.39;78.34
75134;HTU21D;63706;44.708;37.780;2022-10-17T14:37:46;14.36;78.10
75134;HTU21D;63706;44.708;37.780;2022-10-17T14:40:14;14.35;78.08
75134;HTU21D;63706;44.708;37.780;2022-10-17T14:42:41;14.32;77.98
75134;HTU21D;63706;44.708;37.780;2022-10-17T14:45:08;14.33;78.11
75134;HTU21D;63706;44.708;37.780;2022-10-17T14:47:36;14.30;78.10
75134;HTU21D;63706;44.708;37.780;2022-10-17T14:50:07;14.29;78.05
75134;HTU21D;63706;44.708;37.780;2022-10-17T14:52:48;14.29;78.03
75134;HTU21D;63706;44.708;37.780;2022-10-17T14:55:23;14.27;78.04
75134;HTU21D;63706;44.708;37.780;2022-10-17T14:57:49;14.27;77.98
75134;HTU21D;63706;44.708;37.780;2022-10-17T15:00:16;14.28;78.13
75134;HTU21D;63706;44.708;37.780;2022-10-17T15:02:43;14.26;78.01
75134;HTU21D;63706;44.708;37.780;2022-10-17T15:05:09;14.24;77.99
75134;HTU21D;63706;44.708;37.780;2022-10-17T15:07:34;14.24;77.87
75134;HTU21D;63706;44.708;37.780;2022-10-17T15:10:00;14.23;77.94
75134;HTU21D;63706;44.708;37.780;2022-10-17T15:12:26;14.24;77.89
75134;HTU21D;63706;44.708;37.780;2022-10-17T15:14:52;14.26;77.96
75134;HTU21D;63706;44.708;37.780;2022-10-17T15:19:45;14.28;77.82
75134;HTU21D;63706;44.708;37.780;2022-10-17T15:22:11;14.26;77.72
75134;HTU21D;63706;44.708;37.780;2022-10-17T15:24:37;14.25;77.67
75134;HTU21D;63706;44.708;37.780;2022-10-17T15:27:05;14.24;77.74
75134;HTU21D;63706;44.708;37.780;2022-10-17T15:29:32;14.25;77.70
75134;HTU21D;63706;44.708;37.780;2022-10-17T15:31:57;14.24;77.63
75134;HTU21D;63706;44.708;37.780;2022-10-17T15:34:23;14.23;77.63
75134;HTU21D;63706;44.708;37.780;2022-10-17T15:36:49;14.25;77.56
75134;HTU21D;63706;44.708;37.780;2022-10-17T15:39:16;14.27;77.48
75134;HTU21D;63706;44.708;37.780;2022-10-17T15:41:41;14.27;77.37
75134;HTU21D;63706;44.708;37.780;2022-10-17T15:44:12;14.28;77.29
75134;HTU21D;63706;44.708;37.780;2022-10-17T15:46:38;14.30;77.21
75134;HTU21D;63706;44.708;37.780;2022-10-17T15:49:12;14.30;77.13
75134;HTU21D;63706;44.708;37.780;2022-10-17T15:51:47;14.33;77.03
75134;HTU21D;63706;44.708;37.780;2022-10-17T15:54:16;14.33;76.89
75134;HTU21D;63706;44.708;37.780;2022-10-17T15:56:42;14.33;76.86
75134;HTU21D;63706;44.708;37.780;2022-10-17T15:59:12;14.37;76.73
75134;HTU21D;63706;44.708;37.780;2022-10-17T16:01:38;14.39;76.61
75134;HTU21D;63706;44.708;37.780;2022-10-17T16:04:11;14.41;76.48
75134;HTU21D;63706;44.708;37.780;2022-10-17T16:06:40;14.42;76.47
75134;HTU21D;63706;44.708;37.780;2022-10-17T16:09:06;14.44;76.41
75134;HTU21D;63706;44.708;37.780;2022-10-17T16:11:34;14.47;76.38
75134;HTU21D;63706;44.708;37.780;2022-10-17T16:14:00;14.50;76.25
75134;HTU21D;63706;44.708;37.780;2022-10-17T16:16:28;14.51;76.32
75134;HTU21D;63706;44.708;37.780;2022-10-17T16:18:55;14.53;76.08
75134;HTU21D;63706;44.708;37.780;2022-10-17T16:21:30;14.55;76.02
75134;HTU21D;63706;44.708;37.780;2022-10-17T16:23:57;14.57;75.87
75134;HTU21D;63706;44.708;37.780;2022-10-17T16:26:23;14.57;75.83
75134;HTU21D;63706;44.708;37.780;2022-10-17T16:28:49;14.59;75.94
75134;HTU21D;63706;44.708;37.780;2022-10-17T16:31:19;14.59;75.88
75134;HTU21D;63706;44.708;37.780;2022-10-17T16:33:57;14.60;75.92
75134;HTU21D;63706;44.708;37.780;2022-10-17T16:36:32;14.59;76.06
75134;HTU21D;63706;44.708;37.780;2022-10-17T16:38:58;14.59;76.09
75134;HTU21D;63706;44.708;37.780;2022-10-17T16:43:56;14.56;76.15
75134;HTU21D;63706;44.708;37.780;2022-10-17T16:46:23;14.55;76.17
75134;HTU21D;63706;44.708;37.780;2022-10-17T16:48:55;14.54;76.15
75134;HTU21D;63706;44.708;37.780;2022-10-17T16:51:27;14.53;76.34
75134;HTU21D;63706;44.708;37.780;2022-10-17T16:53:56;14.51;76.31
75134;HTU21D;63706;44.708;37.780;2022-10-17T16:56:24;14.52;76.27
75134;HTU21D;63706;44.708;37.780;2022-10-17T16:59:02;14.50;76.30
75134;HTU21D;63706;44.708;37.780;2022-10-17T17:01:31;14.51;75.97